createdAt,value
2022-12-25T00:02:44.479Z,84.74
2022-12-25T00:05:46.260Z,84.74
2022-12-25T00:08:47.817Z,84.77
2022-12-25T00:11:49.535Z,84.69
2022-12-25T00:14:51.291Z,84.88
2022-12-25T00:17:53.065Z,84.78
2022-12-25T00:21:13.959Z,84.82
2022-12-25T00:24:15.688Z,84.80
2022-12-25T00:27:17.237Z,84.88
2022-12-25T00:30:19.039Z,84.66
2022-12-25T00:33:20.785Z,84.80
2022-12-25T00:36:23.706Z,84.74
2022-12-25T00:39:25.410Z,84.86
2022-12-25T00:42:28.608Z,84.87
2022-12-25T00:45:30.298Z,84.92
2022-12-25T00:48:32.478Z,84.98
2022-12-25T00:51:34.368Z,84.97
2022-12-25T00:54:36.141Z,85.05
2022-12-25T00:57:37.690Z,84.97
2022-12-25T01:00:39.638Z,84.87
2022-12-25T01:03:41.575Z,84.72
2022-12-25T01:06:43.371Z,84.83
2022-12-25T01:10:04.448Z,84.97
2022-12-25T01:13:06.328Z,84.99
2022-12-25T01:16:10.253Z,84.98
2022-12-25T01:19:12.114Z,84.97
2022-12-25T01:22:14.060Z,84.93
2022-12-25T01:25:15.710Z,84.75
2022-12-25T01:28:17.376Z,84.70
2022-12-25T01:31:22.134Z,84.62
2022-12-25T01:34:24.135Z,84.52
2022-12-25T01:37:26.029Z,84.47
2022-12-25T01:40:28.248Z,84.44
2022-12-25T01:43:32.320Z,84.32
2022-12-25T01:46:35.049Z,84.31
2022-12-25T01:49:38.246Z,84.32
2022-12-25T01:52:40.136Z,84.47
2022-12-25T01:55:43.438Z,84.48
2022-12-25T01:58:45.159Z,84.87
2022-12-25T02:01:46.826Z,84.79
2022-12-25T02:05:12.684Z,85.19
2022-12-25T02:08:17.097Z,85.56
2022-12-25T02:11:37.550Z,85.06
2022-12-25T02:14:39.556Z,84.96
2022-12-25T02:17:47.055Z,84.85
2022-12-25T02:21:10.469Z,85.20
2022-12-25T02:24:37.261Z,85.37
2022-12-25T02:28:00.826Z,85.25
2022-12-25T02:31:39.214Z,85.24
2022-12-25T02:34:44.974Z,85.25
2022-12-25T02:37:56.008Z,85.21
2022-12-25T02:41:00.170Z,85.28
2022-12-25T02:44:22.724Z,85.33
2022-12-25T02:47:51.284Z,85.21
2022-12-25T02:51:12.422Z,85.16
2022-12-25T02:54:36.840Z,85.12
2022-12-25T02:58:01.478Z,85.15
2022-12-25T03:01:26.686Z,84.98
2022-12-25T03:04:48.391Z,85.02
2022-12-25T03:07:50.371Z,84.87
2022-12-25T03:11:33.559Z,85.00
2022-12-25T03:14:54.464Z,84.94
2022-12-25T03:17:59.730Z,85.00
2022-12-25T03:21:20.278Z,84.84
2022-12-25T03:24:40.789Z,84.74
2022-12-25T03:27:43.083Z,84.55
2022-12-25T03:31:14.459Z,84.70
2022-12-25T03:34:57.613Z,85.10
2022-12-25T03:38:35.241Z,85.28
2022-12-25T03:42:18.821Z,85.49
2022-12-25T03:45:57.770Z,85.49
2022-12-25T03:49:27.202Z,84.97
2022-12-25T03:52:48.696Z,84.81
2022-12-25T03:56:10.265Z,85.19
2022-12-25T03:59:30.706Z,85.13
2022-12-25T04:02:51.539Z,85.49
2022-12-25T04:06:12.322Z,85.57
2022-12-25T04:09:33.039Z,85.85
2022-12-25T04:12:53.517Z,85.64
2022-12-25T04:16:14.453Z,85.93
2022-12-25T04:19:35.112Z,86.05
2022-12-25T04:22:55.970Z,85.89
2022-12-25T04:26:17.687Z,85.79
2022-12-25T04:29:38.382Z,85.89
2022-12-25T04:32:58.848Z,85.57
2022-12-25T04:36:09.333Z,85.44
2022-12-25T04:39:11.068Z,85.10
2022-12-25T04:42:12.818Z,84.99
2022-12-25T04:45:14.754Z,85.28
2022-12-25T04:48:16.302Z,85.31
2022-12-25T04:51:24.502Z,85.21
2022-12-25T04:54:26.229Z,85.18
2022-12-25T04:57:27.804Z,85.10
2022-12-25T05:00:29.507Z,85.31
2022-12-25T05:03:31.434Z,85.37
2022-12-25T05:06:33.044Z,85.34
2022-12-25T05:09:34.955Z,85.25
2022-12-25T05:12:36.645Z,85.43
2022-12-25T05:15:41.377Z,85.21
2022-12-25T05:18:43.455Z,85.83
2022-12-25T05:21:45.044Z,85.66
2022-12-25T05:24:46.603Z,85.47
2022-12-25T05:27:53.747Z,85.72
2022-12-25T05:30:58.638Z,85.77
2022-12-25T05:34:00.468Z,86.11
2022-12-25T05:37:02.212Z,86.43
2022-12-25T05:40:04.144Z,86.92
2022-12-25T05:43:06.123Z,86.96
2022-12-25T05:46:09.566Z,86.68
2022-12-25T05:49:11.291Z,86.64
2022-12-25T05:52:12.931Z,86.61
2022-12-25T05:55:14.731Z,86.50
2022-12-25T05:58:16.453Z,86.56
2022-12-25T06:01:22.385Z,86.64
2022-12-25T06:04:24.509Z,86.82
2022-12-25T06:07:26.135Z,87.00
2022-12-25T06:10:27.816Z,86.78
2022-12-25T06:13:29.552Z,86.58
2022-12-25T06:16:37.651Z,86.64
2022-12-25T06:19:42.401Z,86.51
2022-12-25T06:22:44.011Z,86.38
2022-12-25T06:25:45.584Z,86.43
2022-12-25T06:28:47.640Z,86.21
2022-12-25T06:31:49.579Z,86.18
2022-12-25T06:34:51.326Z,86.05
2022-12-25T06:37:53.140Z,86.00
2022-12-25T06:40:54.787Z,85.94
2022-12-25T06:43:58.695Z,85.82
2022-12-25T06:47:00.436Z,85.92
2022-12-25T06:50:02.333Z,85.77
2022-12-25T06:53:03.988Z,85.80
2022-12-25T06:56:07.899Z,85.73
2022-12-25T06:59:11.035Z,85.82
2022-12-25T07:02:17.774Z,85.67
2022-12-25T07:05:19.625Z,85.78
2022-12-25T07:08:21.183Z,85.72
2022-12-25T07:11:23.373Z,85.70
2022-12-25T07:14:25.043Z,85.73
2022-12-25T07:17:26.722Z,85.62
2022-12-25T07:20:30.069Z,85.68
2022-12-25T07:23:31.794Z,85.66
2022-12-25T07:26:33.343Z,85.47
2022-12-25T07:29:35.234Z,85.60
2022-12-25T07:32:36.962Z,85.69
2022-12-25T07:35:38.824Z,85.65
2022-12-25T07:38:42.156Z,85.57
2022-12-25T07:41:44.244Z,85.55
2022-12-25T07:44:45.849Z,85.59
2022-12-25T07:47:47.407Z,85.77
2022-12-25T07:50:49.096Z,85.66
2022-12-25T07:53:50.755Z,85.59
2022-12-25T07:56:52.956Z,85.58
2022-12-25T07:59:54.629Z,85.34
2022-12-25T08:02:56.937Z,85.43
2022-12-25T08:06:01.181Z,85.52
2022-12-25T08:09:11.214Z,85.48
2022-12-25T08:12:12.932Z,85.46
2022-12-25T08:15:14.626Z,85.36
2022-12-25T08:18:16.428Z,85.28
2022-12-25T08:21:18.198Z,85.19
2022-12-25T08:24:19.760Z,85.18
2022-12-25T08:27:21.532Z,85.34
2022-12-25T08:30:23.353Z,85.28
2022-12-25T08:33:25.257Z,85.24
2022-12-25T08:36:27.334Z,85.09
2022-12-25T08:39:29.028Z,85.13
2022-12-25T08:42:30.738Z,85.01
2022-12-25T08:45:35.227Z,84.47
2022-12-25T08:48:37.914Z,83.36
2022-12-25T08:51:39.766Z,82.72
2022-12-25T08:54:41.459Z,81.80
2022-12-25T08:57:43.282Z,81.35
2022-12-25T09:00:44.925Z,80.68
2022-12-25T09:03:46.673Z,79.39
2022-12-25T09:06:50.250Z,77.84
2022-12-25T09:09:54.342Z,77.35
2022-12-25T09:12:55.981Z,77.27
2022-12-25T09:15:57.802Z,77.23
2022-12-25T09:18:59.503Z,77.00
2022-12-25T09:22:01.113Z,74.76
2022-12-25T09:25:02.987Z,74.67
2022-12-25T09:28:04.864Z,73.98
2022-12-25T09:31:07.366Z,73.78
2022-12-25T09:34:15.417Z,72.47
2022-12-25T09:37:18.931Z,71.17
2022-12-25T09:40:21.710Z,70.95
2022-12-25T09:43:24.672Z,71.44
2022-12-25T09:46:34.809Z,72.45
2022-12-25T09:49:56.297Z,73.20
2022-12-25T09:53:10.493Z,72.12
2022-12-25T09:56:12.324Z,70.41
2022-12-25T09:59:25.505Z,71.35
2022-12-25T10:02:50.499Z,71.64
2022-12-25T10:06:18.725Z,70.63
2022-12-25T10:09:43.062Z,70.34
2022-12-25T10:12:54.743Z,70.95
2022-12-25T10:16:07.727Z,71.95
2022-12-25T10:19:32.433Z,72.06
2022-12-25T10:23:04.186Z,70.93
2022-12-25T10:26:18.208Z,71.42
2022-12-25T10:29:20.227Z,72.65
2022-12-25T10:32:22.379Z,72.49
2022-12-25T10:35:26.434Z,72.03
2022-12-25T10:38:28.210Z,71.35
2022-12-25T10:41:56.729Z,71.35
2022-12-25T10:45:01.209Z,70.91
2022-12-25T10:48:07.855Z,71.12
2022-12-25T10:51:09.941Z,70.81
2022-12-25T10:54:29.869Z,71.28
2022-12-25T10:57:31.498Z,70.59
2022-12-25T11:00:33.459Z,70.62
2022-12-25T11:03:38.797Z,70.96
2022-12-25T11:06:40.524Z,69.84
2022-12-25T11:09:50.020Z,68.30
2022-12-25T11:12:52.440Z,68.60
2022-12-25T11:16:11.071Z,67.37
2022-12-25T11:19:31.607Z,67.63
2022-12-25T11:22:37.086Z,69.93
2022-12-25T11:25:38.811Z,70.60
2022-12-25T11:28:41.525Z,69.65
2022-12-25T11:31:43.476Z,69.86
2022-12-25T11:34:47.534Z,70.31
2022-12-25T11:37:51.529Z,70.26
2022-12-25T11:40:58.323Z,71.14
2022-12-25T11:44:05.127Z,71.18
2022-12-25T11:47:32.766Z,71.93
2022-12-25T11:50:38.010Z,72.46
2022-12-25T11:53:52.000Z,72.69
2022-12-25T11:56:55.926Z,73.35
2022-12-25T12:00:03.985Z,73.73
2022-12-25T12:03:19.385Z,74.52
2022-12-25T12:06:49.837Z,74.84
2022-12-25T12:10:00.483Z,75.06
2022-12-25T12:13:20.769Z,75.09
2022-12-25T12:16:22.779Z,75.90
2022-12-25T12:19:30.533Z,75.88
2022-12-25T12:22:32.289Z,75.36
2022-12-25T12:25:39.151Z,75.35
2022-12-25T12:28:45.809Z,75.16
2022-12-25T12:31:49.209Z,75.33
2022-12-25T12:34:51.068Z,75.59
2022-12-25T12:38:30.409Z,75.53
2022-12-25T12:41:45.112Z,75.67
2022-12-25T12:44:48.928Z,75.88
2022-12-25T12:47:51.788Z,76.17
2022-12-25T12:51:14.831Z,76.41
2022-12-25T12:54:26.157Z,76.38
2022-12-25T12:57:32.806Z,76.48
2022-12-25T13:00:44.575Z,76.61
2022-12-25T13:04:09.597Z,76.59
2022-12-25T13:07:21.310Z,76.39
2022-12-25T13:10:32.622Z,76.55
2022-12-25T13:13:41.296Z,76.54
2022-12-25T13:16:45.821Z,76.69
2022-12-25T13:19:51.225Z,76.45
2022-12-25T13:22:53.288Z,76.52
2022-12-25T13:25:57.057Z,76.51
2022-12-25T13:28:58.809Z,76.59
2022-12-25T13:32:02.394Z,76.56
2022-12-25T13:35:04.918Z,76.32
2022-12-25T13:38:14.348Z,75.56
2022-12-25T13:41:40.738Z,75.16
2022-12-25T13:44:48.466Z,74.92
2022-12-25T13:47:55.218Z,75.04
2022-12-25T13:50:59.708Z,75.41
2022-12-25T13:54:06.126Z,75.19
2022-12-25T13:57:12.990Z,75.18
2022-12-25T14:00:28.543Z,75.01
2022-12-25T14:03:41.081Z,75.50
2022-12-25T14:06:43.129Z,75.58
2022-12-25T14:09:44.925Z,75.59
2022-12-25T14:12:49.697Z,75.46
2022-12-25T14:15:53.683Z,75.65
2022-12-25T14:19:01.260Z,75.73
2022-12-25T14:22:10.886Z,74.83
2022-12-25T14:25:15.901Z,74.69
2022-12-25T14:28:24.951Z,75.19
2022-12-25T14:31:28.806Z,75.35
2022-12-25T14:34:32.774Z,75.60
2022-12-25T14:37:34.568Z,76.38
2022-12-25T14:40:36.151Z,76.47
2022-12-25T14:43:37.817Z,76.12
2022-12-25T14:46:39.808Z,76.67
2022-12-25T14:49:41.906Z,77.05
2022-12-25T14:52:45.057Z,76.62
2022-12-25T14:55:52.193Z,76.49
2022-12-25T14:58:56.793Z,76.79
2022-12-25T15:02:01.316Z,76.78
2022-12-25T15:05:03.379Z,76.61
2022-12-25T15:08:14.100Z,76.61
2022-12-25T15:11:15.885Z,76.77
2022-12-25T15:14:17.781Z,76.92
2022-12-25T15:17:26.656Z,77.02
2022-12-25T15:20:31.650Z,76.94
2022-12-25T15:23:33.341Z,77.08
2022-12-25T15:26:34.964Z,76.99
2022-12-25T15:30:08.552Z,77.44
2022-12-25T15:32:58.195Z,77.39
2022-12-25T15:36:00.018Z,77.69
2022-12-25T15:39:01.887Z,77.74
2022-12-25T15:42:12.789Z,77.63
2022-12-25T15:45:24.639Z,77.63
2022-12-25T15:48:26.348Z,77.79
2022-12-25T15:51:28.080Z,77.94
2022-12-25T15:54:31.077Z,78.38
2022-12-25T15:57:33.589Z,78.47
2022-12-25T16:00:35.247Z,78.53
2022-12-25T16:03:36.988Z,78.44
2022-12-25T16:06:38.937Z,78.39
2022-12-25T16:09:40.583Z,78.54
2022-12-25T16:12:42.681Z,78.60
2022-12-25T16:15:45.197Z,78.74
2022-12-25T16:18:47.924Z,78.87
2022-12-25T16:21:50.164Z,78.98
2022-12-25T16:24:52.554Z,78.80
2022-12-25T16:27:54.147Z,78.93
2022-12-25T16:30:55.920Z,79.05
2022-12-25T16:33:57.761Z,79.19
2022-12-25T16:36:59.387Z,79.15
2022-12-25T16:40:01.458Z,79.68
2022-12-25T16:43:03.159Z,79.72
2022-12-25T16:46:11.781Z,79.85
2022-12-25T16:49:13.483Z,80.02
2022-12-25T16:52:15.094Z,80.05
2022-12-25T16:55:16.888Z,80.22
2022-12-25T16:58:18.599Z,80.04
2022-12-25T17:01:20.779Z,79.87
2022-12-25T17:04:22.919Z,80.07
2022-12-25T17:07:24.653Z,80.03
2022-12-25T17:10:26.254Z,79.77
2022-12-25T17:13:27.961Z,79.91
2022-12-25T17:16:33.034Z,79.90
2022-12-25T17:19:34.971Z,80.15
2022-12-25T17:22:36.688Z,80.67
2022-12-25T17:25:38.295Z,80.48
2022-12-25T17:28:40.106Z,80.87
2022-12-25T17:31:41.905Z,81.05
2022-12-25T17:34:43.835Z,81.06
2022-12-25T17:37:45.530Z,80.94
2022-12-25T17:40:54.753Z,80.81
2022-12-25T17:43:56.534Z,80.82
2022-12-25T17:46:58.264Z,81.07
2022-12-25T17:50:00.271Z,81.06
2022-12-25T17:53:02.706Z,81.05
2022-12-25T17:56:05.723Z,81.31
2022-12-25T17:59:10.078Z,81.16
2022-12-25T18:02:11.998Z,81.34
2022-12-25T18:05:13.920Z,80.87
2022-12-25T18:08:16.189Z,80.80
2022-12-25T18:11:21.388Z,81.15
2022-12-25T18:14:23.268Z,81.23
2022-12-25T18:17:24.974Z,80.86
2022-12-25T18:20:26.532Z,81.24
2022-12-25T18:23:28.619Z,81.31
2022-12-25T18:26:30.475Z,81.49
2022-12-25T18:29:32.252Z,81.47
2022-12-25T18:32:34.104Z,81.58
2022-12-25T18:35:39.069Z,81.48
2022-12-25T18:38:40.948Z,81.47
2022-12-25T18:42:01.766Z,81.61
2022-12-25T18:45:03.995Z,81.82
2022-12-25T18:48:06.476Z,81.57
2022-12-25T18:51:11.196Z,81.68
2022-12-25T18:54:12.967Z,81.58
2022-12-25T18:57:14.533Z,81.71
2022-12-25T19:00:16.694Z,81.56
2022-12-25T19:03:18.471Z,81.48
2022-12-25T19:06:23.441Z,81.89
2022-12-25T19:09:25.163Z,81.79
2022-12-25T19:12:26.743Z,81.76
2022-12-25T19:15:28.422Z,81.86
2022-12-25T19:18:30.299Z,81.86
2022-12-25T19:21:32.096Z,81.93
2022-12-25T19:24:33.854Z,81.92
2022-12-25T19:27:35.768Z,81.96
2022-12-25T19:30:38.467Z,82.35
2022-12-25T19:33:41.603Z,82.47
2022-12-25T19:36:43.190Z,82.63
2022-12-25T19:39:46.905Z,82.78
2022-12-25T19:42:48.782Z,82.59
2022-12-25T19:45:50.794Z,82.54
2022-12-25T19:48:52.569Z,82.58
2022-12-25T19:51:54.258Z,82.87
2022-12-25T19:54:56.064Z,82.66
2022-12-25T19:57:59.269Z,82.46
2022-12-25T20:01:05.636Z,82.82
2022-12-25T20:04:09.848Z,82.94
2022-12-25T20:07:11.647Z,83.02
2022-12-25T20:10:13.269Z,82.95
2022-12-25T20:13:15.269Z,83.16
2022-12-25T20:16:17.748Z,82.80
2022-12-25T20:19:19.394Z,82.81
2022-12-25T20:22:21.135Z,82.66
2022-12-25T20:25:22.884Z,82.55
2022-12-25T20:28:24.590Z,82.70
2022-12-25T20:31:27.605Z,83.05
2022-12-25T20:34:30.568Z,82.65
2022-12-25T20:37:32.310Z,82.75
2022-12-25T20:40:53.071Z,82.45
2022-12-25T20:43:56.220Z,82.93
2022-12-25T20:47:01.051Z,83.20
2022-12-25T20:50:02.814Z,83.07
2022-12-25T20:53:04.416Z,83.12
2022-12-25T20:56:06.738Z,83.29
2022-12-25T20:59:09.861Z,83.29
2022-12-25T21:02:33.486Z,83.21
2022-12-25T21:05:34.113Z,83.41
2022-12-25T21:08:36.544Z,83.75
2022-12-25T21:11:39.374Z,83.86
2022-12-25T21:14:43.071Z,83.54
2022-12-25T21:17:45.826Z,83.70
2022-12-25T21:20:51.332Z,83.61
2022-12-25T21:23:55.299Z,83.51
2022-12-25T21:26:56.940Z,83.64
2022-12-25T21:29:58.650Z,83.36
2022-12-25T21:33:36.109Z,83.43
2022-12-25T21:36:37.900Z,83.15
2022-12-25T21:39:39.470Z,83.33
2022-12-25T21:42:41.108Z,83.61
2022-12-25T21:45:42.875Z,83.51
2022-12-25T21:48:44.596Z,83.52
2022-12-25T21:52:05.283Z,83.39
2022-12-25T21:55:07.308Z,83.31
2022-12-25T21:58:09.073Z,83.29
2022-12-25T22:01:11.785Z,83.00
2022-12-25T22:04:15.299Z,83.22
2022-12-25T22:07:19.914Z,82.79
2022-12-25T22:10:21.623Z,83.10
2022-12-25T22:13:42.360Z,83.10
2022-12-25T22:17:02.978Z,82.87
2022-12-25T22:20:06.948Z,82.97
2022-12-25T22:23:08.789Z,83.01
2022-12-25T22:26:13.361Z,83.05
2022-12-25T22:29:17.704Z,83.31
2022-12-25T22:32:19.583Z,83.36
2022-12-25T22:35:23.647Z,83.12
2022-12-25T22:38:25.293Z,83.30
2022-12-25T22:41:33.086Z,83.33
2022-12-25T22:44:35.910Z,83.47
2022-12-25T22:47:37.935Z,83.34
2022-12-25T22:50:39.648Z,83.49
2022-12-25T22:53:41.159Z,83.34
2022-12-25T22:56:48.246Z,83.45
2022-12-25T22:59:52.847Z,83.45
2022-12-25T23:02:54.729Z,83.38
2022-12-25T23:05:57.124Z,83.24
2022-12-25T23:08:59.009Z,83.22
2022-12-25T23:12:00.960Z,83.20
2022-12-25T23:15:02.896Z,83.11
2022-12-25T23:18:23.887Z,83.17
2022-12-25T23:21:53.116Z,83.04
2022-12-25T23:25:14.649Z,83.31
2022-12-25T23:28:36.371Z,83.19
2022-12-25T23:31:39.820Z,83.31
2022-12-25T23:34:44.685Z,83.48
2022-12-25T23:37:46.723Z,83.52
2022-12-25T23:40:48.542Z,83.63
2022-12-25T23:43:50.586Z,83.54
2022-12-25T23:46:53.649Z,83.47
2022-12-25T23:49:55.639Z,83.58
2022-12-25T23:52:57.468Z,83.37
2022-12-25T23:55:59.427Z,83.41
2022-12-25T23:59:01.196Z,83.48
